메인 페이지
METAR-TAF:

METAR-TAF

공항 :

미니애폴리스, 미네소타, 미국

미니애폴리스 세인트폴 국제공항

위도: 44-52-59N, 경도: 093-13-44W, 고도: 256m

현재 날씨관측

예보는 51분 전, 09:53시(UTC)에 발표되었습니다.
6kt
온도 3°C
습도 65%
기압 1024 hPa
시정: 16.1km
맑음

METAR: KMSP 250953Z 01006KT 10SM CLR 03/M03 A3025 RMK AO2 SLP250 T00281033

시각: 05:44 (10:44 UTC)

예보

예보는 2 시간 24분 전, 08:20시(UTC)에 발표되었습니다.
예보 대상 시간: 25일 08시부터 26일 12시까지 (UTC)
6kt
시정: 10km
맑음
25일 2100시부터 (UTC)
7kt
시정: 10km
맑음
26일 0300시부터 (UTC)
남남서5kt
시정: 10km
맑음

TAF: KMSP 250820Z 2508/2612 01006KT P6SM SKC FM252100 26007KT P6SM SKC FM260300 20005KT P6SM SKC

4,000개 이상의 공항 관측 자료 및 예보 (METAR 및 TAF 보고).

지도상에서 검색 가능한 기상관측소가 노란 점과 빨간 점으로 표시되어 있습니다.

기상관측소 명을 보려면 표시 위로 마우스를 이동하세요.

날씨 관측과 예보를 보려면 클릭하세요.

지도 변경 : 확대하려면 엑스 표시가 있는 녹색 버튼, 축소하려면 빼기 표시가 있는 녹색 버튼, 다음 페이지의 지도를 보려면 녹색 화살표를 클릭하세요.


METAR-TAF: